Impacts TAF Board
For situational awareness. Not to be used for flight planning purposes.
IDs:

KAUS - Austin/Bergstrom Int, TX, US

Issued at 1720 UTC 13 Aug 2020
Updated at 1954 UTC 13 Aug 2020
Potential Impact None Slight Moderate High
Time<<14/08Z 14/09Z 14/10Z 14/11Z 14/12Z 14/13Z 14/14Z 14/15Z 14/16Z 14/17Z 14/18Z 14/19Z 14/20Z>>
Type PRVL PRVL PRVL PRVL PRVL PRVL PRVL PRVL PRVL PRVL PRVL PRVL PRVL
VIS >6 >6 >6 >6 >6 >6 >6 >6 >6 >6 >6 >6 >6
CIG -- -- -- -- -- -- -- -- -- -- -- -- --
Cover SKC FEW FEW FEW FEW FEW FEW SKC SKC SKC SKC SKC SKC
FltCat VFR VFR VFR VFR VFR VFR VFR VFR VFR VFR VFR VFR VFR
WX -- -- -- -- -- -- -- -- -- -- -- -- --
WDir 170 190 190 190 190 190 190 210 210 210 210 210 210
WSpd 11 7 7 7 7 7 7 10 10 10 10 10 10
WGst -- -- -- -- -- -- -- -- -- -- -- -- --
R17/35
XWnd 2 -1 -1 -1 -1 -1 -1 -5 -5 -5 -5 -5 -5
HWnd 11 7 7 7 7 7 7 9 9 9 9 9 9
Raw TAF
KAUS 131720Z 1318/1424 20011KT P6SM SKC
  FM140000 17011KT P6SM SKC
  FM140900 19007KT P6SM FEW012
  FM141500 21010KT P6SM SKC


METAR Board
Radar Display
Forecast Discussion
For situational awareness. Not to be used for flight planning purposes.